Time;durP1;ratioP1;P1;durP2;ratioP2;P2;SDS_P1;SDS_P2;PMS_P1;PMS_P2;Temp;Humidity;BMP_temperature;BMP_pressure;BME280_temperature;BME280_humidity;BME280_pressure;Samples;Min_cycle;Max_cycle;Signal;HPM_P1;HPM_P2
2023/04/06 00:01:32;;;;;;;30.30;13.45;;;-0.40;99.90;;;;;;5059946;28;20029;-62
2023/04/06 00:03:57;;;;;;;29.92;13.38;;;-0.50;99.90;;;;;;5048388;28;20135;-63
2023/04/06 00:06:23;;;;;;;25.33;13.23;;;-0.50;99.90;;;;;;5047391;28;20061;-63
2023/04/06 00:08:49;;;;;;;32.25;13.82;;;-0.50;99.90;;;;;;5063920;28;20031;-62
2023/04/06 00:11:16;;;;;;;32.08;13.05;;;-0.60;99.90;;;;;;5067441;28;20067;-61
2023/04/06 00:13:42;;;;;;;31.50;13.93;;;-0.60;99.90;;;;;;5065949;28;20028;-61
2023/04/06 00:16:08;;;;;;;29.75;13.32;;;-0.60;99.90;;;;;;5067510;28;20097;-67
2023/04/06 00:18:34;;;;;;;32.22;13.30;;;-0.60;99.90;;;;;;5068293;28;20066;-61
2023/04/06 00:21:00;;;;;;;30.05;13.25;;;-0.60;99.90;;;;;;5068016;28;20033;-62
2023/04/06 00:23:25;;;;;;;31.58;12.88;;;-0.60;99.90;;;;;;5049288;28;20029;-61
2023/04/06 00:25:51;;;;;;;28.60;12.70;;;-0.70;99.90;;;;;;5068182;28;20082;-61
2023/04/06 00:28:17;;;;;;;29.05;12.75;;;-0.70;99.90;;;;;;5063014;28;20020;-61
2023/04/06 00:30:42;;;;;;;31.73;13.25;;;-0.70;99.90;;;;;;5067976;28;20039;-64
2023/04/06 00:33:08;;;;;;;30.65;12.57;;;-0.80;99.90;;;;;;5066614;28;20174;-68
2023/04/06 00:35:34;;;;;;;33.22;14.15;;;-0.80;99.90;;;;;;5067846;28;20024;-62
2023/04/06 00:38:00;;;;;;;32.58;13.13;;;-0.80;99.90;;;;;;5067900;28;20469;-61
2023/04/06 00:40:28;;;;;;;28.75;12.63;;;-0.80;99.90;;;;;;5067203;28;20017;-61
2023/04/06 00:42:54;;;;;;;31.38;13.40;;;-0.70;99.90;;;;;;5066392;28;20040;-61
2023/04/06 00:45:20;;;;;;;30.13;13.27;;;-0.80;99.90;;;;;;5065185;28;20052;-62
2023/04/06 00:47:46;;;;;;;31.33;13.32;;;-0.80;99.90;;;;;;5068109;28;20126;-61
2023/04/06 00:50:11;;;;;;;28.02;12.50;;;-0.90;99.90;;;;;;5054507;28;20028;-61
2023/04/06 00:52:37;;;;;;;30.30;13.10;;;-0.80;99.90;;;;;;5047341;28;20049;-63
2023/04/06 00:55:04;;;;;;;26.63;12.82;;;-0.90;99.90;;;;;;5061428;28;20041;-62
2023/04/06 00:57:30;;;;;;;29.70;13.20;;;-0.80;99.90;;;;;;5066747;28;20036;-63
2023/04/06 00:59:56;;;;;;;30.92;12.65;;;-0.90;99.90;;;;;;5066582;28;20503;-61
2023/04/06 01:02:23;;;;;;;30.88;12.52;;;-0.90;99.90;;;;;;5051286;28;20036;-61
2023/04/06 01:04:48;;;;;;;29.08;12.48;;;-1.00;99.90;;;;;;5047845;28;20021;-61
2023/04/06 01:07:14;;;;;;;28.58;12.73;;;-1.00;99.90;;;;;;5046696;28;20035;-61
2023/04/06 01:09:41;;;;;;;33.97;13.23;;;-1.00;99.90;;;;;;5047738;28;20025;-61
2023/04/06 01:12:07;;;;;;;30.15;12.65;;;-1.00;99.90;;;;;;5048700;28;20041;-67
2023/04/06 01:14:33;;;;;;;32.00;13.45;;;-1.00;99.90;;;;;;5043029;28;20082;-63
2023/04/06 01:17:02;;;;;;;31.80;12.50;;;-1.00;99.90;;;;;;5069672;28;20054;-61
2023/04/06 01:19:28;;;;;;;28.02;12.85;;;-1.10;99.90;;;;;;5070378;28;20500;-62
2023/04/06 01:21:54;;;;;;;32.97;13.77;;;-1.10;99.90;;;;;;5068904;28;20033;-63
2023/04/06 01:24:20;;;;;;;30.00;12.98;;;-1.10;99.90;;;;;;5052301;28;20139;-62
2023/04/06 01:26:46;;;;;;;31.88;13.95;;;-1.10;99.90;;;;;;5071172;28;20024;-61
2023/04/06 01:29:12;;;;;;;29.67;12.40;;;-1.10;99.90;;;;;;5070390;28;20423;-67
2023/04/06 01:31:39;;;;;;;25.95;12.23;;;-1.10;99.90;;;;;;5056398;28;20076;-63
2023/04/06 01:34:05;;;;;;;30.08;12.65;;;-1.10;99.90;;;;;;5050979;28;20079;-61
2023/04/06 01:36:31;;;;;;;30.48;13.00;;;-1.20;99.90;;;;;;5050177;28;20112;-62
2023/04/06 01:38:57;;;;;;;33.17;12.80;;;-1.20;99.90;;;;;;5051116;28;20024;-61
2023/04/06 01:41:23;;;;;;;34.78;13.50;;;-1.30;99.90;;;;;;5052021;28;20024;-65
2023/04/06 01:43:49;;;;;;;31.08;12.90;;;-1.40;99.90;;;;;;5070966;28;20043;-61
2023/04/06 01:46:15;;;;;;;30.50;13.13;;;-1.40;99.90;;;;;;5051092;28;20381;-61
2023/04/06 01:48:41;;;;;;;32.58;13.50;;;-1.50;99.90;;;;;;5070268;28;20029;-69
2023/04/06 01:51:07;;;;;;;29.90;12.80;;;-1.50;99.90;;;;;;5063619;28;20437;-64
2023/04/06 01:53:33;;;;;;;29.00;12.40;;;-1.60;99.90;;;;;;5051107;28;20057;-65
2023/04/06 01:55:58;;;;;;;26.63;12.23;;;-1.50;99.90;;;;;;5070784;28;20061;-65
2023/04/06 01:58:24;;;;;;;32.33;13.00;;;-1.60;99.90;;;;;;5069485;28;20063;-63
2023/04/06 02:00:50;;;;;;;27.90;12.75;;;-1.50;99.90;;;;;;5066925;28;20040;-67
2023/04/06 02:03:15;;;;;;;29.33;12.65;;;-1.60;99.90;;;;;;5060400;28;20040;-63
2023/04/06 02:05:41;;;;;;;26.23;12.63;;;-1.60;99.90;;;;;;5049841;28;20510;-64
2023/04/06 02:08:07;;;;;;;28.83;13.23;;;-1.60;99.90;;;;;;5064072;28;20804;-63
2023/04/06 02:10:34;;;;;;;29.35;12.85;;;-1.50;99.90;;;;;;5062803;28;20367;-66
2023/04/06 02:13:00;;;;;;;31.52;12.95;;;-1.50;99.90;;;;;;5064363;28;20067;-65
2023/04/06 02:15:26;;;;;;;31.27;13.43;;;-1.60;99.90;;;;;;5053410;28;20067;-63
2023/04/06 02:17:52;;;;;;;28.55;12.15;;;-1.50;99.90;;;;;;5069192;28;20035;-63
2023/04/06 02:20:17;;;;;;;30.42;13.27;;;-1.60;99.90;;;;;;5051217;28;20393;-63
2023/04/06 02:22:43;;;;;;;29.55;12.48;;;-1.50;99.90;;;;;;5065999;28;20032;-65
2023/04/06 02:25:09;;;;;;;31.70;12.70;;;-1.60;99.90;;;;;;5063722;28;20040;-65
2023/04/06 02:27:35;;;;;;;29.50;13.48;;;-1.60;99.90;;;;;;5069247;28;20429;-63
2023/04/06 02:30:02;;;;;;;28.02;12.45;;;-1.70;99.90;;;;;;5069938;28;20032;-63
2023/04/06 02:32:28;;;;;;;29.05;12.32;;;-1.80;99.90;;;;;;5065564;28;20127;-68
2023/04/06 02:34:53;;;;;;;29.50;12.80;;;-1.70;99.90;;;;;;5069200;28;20103;-64
2023/04/06 02:37:19;;;;;;;32.25;12.43;;;-1.70;99.90;;;;;;5068109;28;20036;-64
2023/04/06 02:39:45;;;;;;;27.80;11.85;;;-1.70;99.90;;;;;;5051808;28;20028;-63
2023/04/06 02:42:11;;;;;;;30.33;13.23;;;-1.70;99.90;;;;;;5064007;28;20040;-65
2023/04/06 02:44:36;;;;;;;30.27;12.35;;;-1.70;99.90;;;;;;5054549;28;20037;-63
2023/04/06 02:47:02;;;;;;;29.35;12.15;;;-1.70;99.90;;;;;;5049641;28;20380;-63
2023/04/06 02:49:28;;;;;;;30.15;13.52;;;-1.70;99.90;;;;;;5048505;28;20166;-61
2023/04/06 02:51:54;;;;;;;29.95;12.77;;;-1.80;99.90;;;;;;5049095;28;20049;-62
2023/04/06 02:54:19;;;;;;;33.60;13.25;;;-1.80;99.90;;;;;;5056103;28;20048;-63
2023/04/06 02:56:45;;;;;;;31.25;12.00;;;-1.90;99.90;;;;;;5061791;28;20052;-61
2023/04/06 02:59:11;;;;;;;27.77;12.00;;;-1.90;99.90;;;;;;5069173;28;20028;-63
2023/04/06 03:01:36;;;;;;;30.00;12.38;;;-2.00;99.90;;;;;;5067208;28;20033;-61
2023/04/06 03:04:02;;;;;;;29.58;12.48;;;-2.00;99.90;;;;;;5049672;28;20093;-61
2023/04/06 03:06:28;;;;;;;27.42;12.40;;;-2.00;99.90;;;;;;5048846;28;20033;-62
2023/04/06 03:08:53;;;;;;;26.85;11.77;;;-2.00;99.90;;;;;;5032630;28;20036;-62
2023/04/06 03:11:20;;;;;;;25.75;11.45;;;-2.00;99.90;;;;;;5051867;28;20154;-63
2023/04/06 03:13:46;;;;;;;26.33;12.27;;;-2.00;99.90;;;;;;5065175;28;20121;-61
2023/04/06 03:16:11;;;;;;;29.45;11.93;;;-2.10;99.90;;;;;;5035559;28;20092;-61
2023/04/06 03:18:37;;;;;;;27.17;11.90;;;-2.00;99.90;;;;;;5064478;28;20031;-63
2023/04/06 03:21:03;;;;;;;33.00;13.07;;;-2.00;99.90;;;;;;5049947;28;20029;-64
2023/04/06 03:23:28;;;;;;;31.92;12.65;;;-2.10;99.90;;;;;;5062996;28;20048;-64
2023/04/06 03:25:54;;;;;;;29.30;12.68;;;-2.10;99.90;;;;;;5068673;28;20036;-64
2023/04/06 03:28:20;;;;;;;29.63;12.52;;;-2.10;99.90;;;;;;5066698;28;20029;-64
2023/04/06 03:30:46;;;;;;;30.60;12.38;;;-2.20;99.90;;;;;;5066302;28;20035;-61
2023/04/06 03:33:11;;;;;;;30.73;12.77;;;-2.20;99.90;;;;;;5067023;28;20033;-61
2023/04/06 03:35:37;;;;;;;29.92;13.50;;;-2.20;99.90;;;;;;5065175;28;20027;-61
2023/04/06 03:38:04;;;;;;;28.85;13.02;;;-2.20;99.90;;;;;;5067838;28;20086;-64
2023/04/06 03:40:31;;;;;;;30.25;13.25;;;-2.20;99.90;;;;;;5049215;28;20033;-64
2023/04/06 03:42:56;;;;;;;27.55;12.02;;;-2.30;99.90;;;;;;5066239;28;20038;-61
2023/04/06 03:45:22;;;;;;;29.15;12.25;;;-2.30;99.90;;;;;;5068149;28;20040;-63
2023/04/06 03:47:48;;;;;;;29.38;13.02;;;-2.40;99.90;;;;;;5062638;28;20472;-63
2023/04/06 03:50:13;;;;;;;29.75;13.20;;;-2.40;99.90;;;;;;5067309;28;20397;-61
2023/04/06 03:52:39;;;;;;;31.63;13.88;;;-2.40;99.90;;;;;;5044472;28;20351;-62
2023/04/06 03:55:05;;;;;;;28.08;12.00;;;-2.40;99.90;;;;;;5050885;28;20504;-61
2023/04/06 03:57:31;;;;;;;30.00;13.00;;;-2.40;99.90;;;;;;5067559;28;20064;-60
2023/04/06 03:59:57;;;;;;;31.02;12.88;;;-2.40;99.90;;;;;;5059932;28;20130;-60
2023/04/06 04:02:22;;;;;;;25.83;12.32;;;-2.40;99.90;;;;;;5055381;28;20036;-60
2023/04/06 04:04:48;;;;;;;30.08;12.50;;;-2.40;99.90;;;;;;5056432;28;20036;-61
2023/04/06 04:07:14;;;;;;;29.42;12.73;;;-2.40;99.90;;;;;;5068307;28;20025;-62
2023/04/06 04:09:39;;;;;;;28.98;12.30;;;-2.40;99.90;;;;;;5067683;28;20021;-62
2023/04/06 04:12:05;;;;;;;26.42;12.00;;;-2.50;99.90;;;;;;5068127;28;20415;-61
2023/04/06 04:14:31;;;;;;;32.08;13.07;;;-2.40;99.90;;;;;;5060926;28;20401;-61
2023/04/06 04:16:57;;;;;;;34.15;13.43;;;-2.50;99.90;;;;;;5052393;28;20028;-61
2023/04/06 04:19:23;;;;;;;31.13;13.85;;;-2.50;99.90;;;;;;5065482;28;20464;-62
2023/04/06 04:21:48;;;;;;;28.98;12.52;;;-2.50;99.90;;;;;;5062777;28;20051;-62
2023/04/06 04:24:14;;;;;;;29.27;11.98;;;-2.50;99.90;;;;;;5057344;28;20028;-61
2023/04/06 04:26:40;;;;;;;27.40;12.75;;;-2.50;99.90;;;;;;5067101;28;20052;-66
2023/04/06 04:29:06;;;;;;;33.75;13.65;;;-2.60;99.90;;;;;;5062923;28;20382;-61
2023/04/06 04:31:31;;;;;;;32.65;13.10;;;-2.60;99.90;;;;;;5059343;28;20032;-61
2023/04/06 04:34:00;;;;;;;32.63;13.15;;;-2.70;99.90;;;;;;5042233;28;20473;-65
2023/04/06 04:36:26;;;;;;;33.20;14.00;;;-2.70;99.90;;;;;;5061105;28;20393;-61
2023/04/06 04:38:54;;;;;;;33.22;14.15;;;-2.70;99.90;;;;;;5062549;28;20040;-64
2023/04/06 04:41:20;;;;;;;39.25;14.77;;;-2.70;99.90;;;;;;5061130;28;20043;-68
2023/04/06 04:43:46;;;;;;;37.47;14.90;;;-2.70;99.90;;;;;;5064199;28;20457;-61
2023/04/06 04:46:14;;;;;;;32.75;14.85;;;-2.70;99.90;;;;;;5064309;28;20450;-61
2023/04/06 04:48:40;;;;;;;35.25;13.15;;;-2.70;99.90;;;;;;5065345;28;20028;-62
2023/04/06 04:51:06;;;;;;;30.95;13.00;;;-2.80;99.90;;;;;;5066719;28;20082;-60
2023/04/06 04:53:31;;;;;;;30.50;12.48;;;-2.70;99.90;;;;;;5061782;28;20550;-61
2023/04/06 04:55:57;;;;;;;31.00;13.32;;;-2.70;99.90;;;;;;5069351;28;20115;-61
2023/04/06 04:58:22;;;;;;;33.38;14.10;;;-2.70;99.90;;;;;;5071130;28;20086;-66
2023/04/06 05:00:48;;;;;;;32.65;12.90;;;-2.80;99.90;;;;;;5052644;28;20527;-61
2023/04/06 05:03:23;;;;;;;30.27;13.00;;;-2.80;99.90;;;;;;5069138;28;20090;-61
2023/04/06 05:05:49;;;;;;;27.65;12.32;;;-2.80;99.90;;;;;;5068835;28;20039;-62
2023/04/06 05:08:15;;;;;;;32.35;13.10;;;-2.70;99.90;;;;;;5071468;28;20020;-61
2023/04/06 05:10:41;;;;;;;30.48;13.05;;;-2.70;99.90;;;;;;5049661;28;20155;-62
2023/04/06 05:13:07;;;;;;;29.13;12.00;;;-2.70;99.90;;;;;;5069853;28;20513;-61
2023/04/06 05:15:37;;;;;;;30.73;13.10;;;-2.70;99.90;;;;;;5069392;28;20086;-61
2023/04/06 05:18:04;;;;;;;29.35;12.73;;;-2.60;99.90;;;;;;5070823;28;20502;-66
2023/04/06 05:20:29;;;;;;;32.42;13.65;;;-2.50;99.90;;;;;;5062422;28;20036;-62
2023/04/06 05:22:55;;;;;;;36.72;13.75;;;-2.40;99.90;;;;;;5065113;28;20075;-60
2023/04/06 05:25:21;;;;;;;38.10;13.95;;;-2.30;99.90;;;;;;5042125;28;20028;-66
2023/04/06 05:27:47;;;;;;;32.35;13.45;;;-2.30;99.90;;;;;;5058380;28;20036;-61
2023/04/06 05:30:13;;;;;;;34.70;14.15;;;-2.20;99.90;;;;;;5068270;28;20510;-63
2023/04/06 05:32:38;;;;;;;33.05;13.30;;;-2.10;99.90;;;;;;5068175;28;20086;-61
2023/04/06 05:35:05;;;;;;;41.92;14.90;;;-2.10;99.90;;;;;;5070875;28;20078;-62
2023/04/06 05:37:30;;;;;;;37.28;14.38;;;-2.00;99.90;;;;;;5067944;28;20120;-61
2023/04/06 05:39:56;;;;;;;32.47;14.05;;;-1.80;99.90;;;;;;5041780;28;20108;-60
2023/04/06 05:42:22;;;;;;;35.58;14.82;;;-1.70;99.90;;;;;;5067455;28;20526;-66
2023/04/06 05:44:48;;;;;;;32.90;13.43;;;-1.50;99.90;;;;;;5059549;28;20039;-63
2023/04/06 05:47:14;;;;;;;31.90;13.15;;;-1.50;99.90;;;;;;5043096;28;20043;-62
2023/04/06 05:49:42;;;;;;;30.48;13.45;;;-1.50;99.90;;;;;;5050165;28;20033;-60
2023/04/06 05:52:08;;;;;;;28.15;12.77;;;-1.50;99.90;;;;;;5066511;28;20044;-65
2023/04/06 05:54:35;;;;;;;28.75;13.20;;;-1.50;99.90;;;;;;5061385;28;20049;-63
2023/04/06 05:57:02;;;;;;;33.08;13.80;;;-1.50;99.90;;;;;;5049399;28;20025;-63
2023/04/06 05:59:30;;;;;;;34.97;14.85;;;-1.40;99.90;;;;;;5066179;28;20048;-61
2023/04/06 06:01:56;;;;;;;32.08;14.27;;;-1.30;99.90;;;;;;5046421;28;20074;-61
2023/04/06 06:04:21;;;;;;;32.20;13.52;;;-1.30;99.90;;;;;;5069654;28;20029;-61
2023/04/06 06:06:47;;;;;;;37.03;15.40;;;-1.20;99.90;;;;;;5067536;28;20028;-60
2023/04/06 06:09:12;;;;;;;38.05;16.80;;;-1.10;99.90;;;;;;5068859;28;20512;-61
2023/04/06 06:11:38;;;;;;;43.33;16.77;;;-1.20;99.90;;;;;;5056504;28;20560;-62
2023/04/06 06:14:04;;;;;;;41.05;16.48;;;-1.10;99.90;;;;;;5067389;28;20431;-61
2023/04/06 06:16:30;;;;;;;48.33;16.98;;;-1.00;99.90;;;;;;5067576;28;20483;-63
2023/04/06 06:18:55;;;;;;;39.00;16.10;;;-1.00;99.90;;;;;;5044451;28;20028;-61
2023/04/06 06:21:21;;;;;;;41.45;16.83;;;-1.00;99.90;;;;;;5068510;28;20024;-61
2023/04/06 06:23:49;;;;;;;38.88;16.45;;;-1.00;99.90;;;;;;5067205;28;20021;-61
2023/04/06 06:26:14;;;;;;;41.08;17.67;;;-0.90;99.90;;;;;;5068017;28;20481;-62
2023/04/06 06:28:40;;;;;;;42.28;17.20;;;-0.80;99.90;;;;;;5062274;28;20025;-61
2023/04/06 06:31:06;;;;;;;43.22;17.23;;;-0.70;99.90;;;;;;5051285;28;20067;-60
2023/04/06 06:33:32;;;;;;;40.03;16.67;;;-0.60;99.90;;;;;;5062507;28;20059;-62
2023/04/06 06:35:58;;;;;;;42.35;16.85;;;-0.50;99.90;;;;;;5069943;28;20032;-62
2023/04/06 06:38:24;;;;;;;37.22;16.75;;;-0.40;99.90;;;;;;5067428;28;20093;-65
2023/04/06 06:40:49;;;;;;;35.28;15.85;;;-0.30;99.90;;;;;;5066182;28;20036;-62
2023/04/06 06:43:15;;;;;;;38.30;16.92;;;-0.20;99.90;;;;;;5056142;28;20033;-62
2023/04/06 06:45:42;;;;;;;41.00;17.85;;;-0.10;99.90;;;;;;5051454;28;20028;-63
2023/04/06 06:48:07;;;;;;;41.35;18.75;;;0.00;99.90;;;;;;5064843;28;20043;-62
2023/04/06 06:50:33;;;;;;;40.53;17.50;;;0.10;99.90;;;;;;5068794;28;20452;-61
2023/04/06 06:52:59;;;;;;;38.42;17.13;;;0.20;99.90;;;;;;5067849;28;20079;-62
2023/04/06 06:55:26;;;;;;;41.83;17.63;;;0.40;99.90;;;;;;5067830;28;20378;-61
2023/04/06 06:57:52;;;;;;;39.05;18.05;;;0.40;99.90;;;;;;5069053;28;20032;-60
2023/04/06 07:00:20;;;;;;;38.13;16.77;;;0.60;99.90;;;;;;5065232;28;20056;-63
2023/04/06 07:02:46;;;;;;;40.28;17.40;;;0.70;99.90;;;;;;5059560;28;20047;-61
2023/04/06 07:05:12;;;;;;;39.67;17.08;;;0.80;99.90;;;;;;5060203;28;20067;-61
2023/04/06 07:07:38;;;;;;;40.40;16.60;;;0.90;99.90;;;;;;5066327;28;20063;-62
2023/04/06 07:10:05;;;;;;;42.95;16.48;;;1.10;99.90;;;;;;5068156;28;20116;-60
2023/04/06 07:12:30;;;;;;;37.63;17.38;;;1.30;99.90;;;;;;5064331;28;20052;-65
2023/04/06 07:14:56;;;;;;;43.00;16.52;;;1.40;99.90;;;;;;5067641;28;20025;-60
2023/04/06 07:17:24;;;;;;;37.53;16.50;;;1.60;99.90;;;;;;5066312;28;20720;-60
2023/04/06 07:19:50;;;;;;;41.20;17.63;;;1.80;99.90;;;;;;5048266;28;20032;-62
2023/04/06 07:22:15;;;;;;;39.15;18.65;;;2.00;99.90;;;;;;5067558;28;20032;-60
2023/04/06 07:24:41;;;;;;;37.45;17.23;;;2.20;99.90;;;;;;5068334;28;20086;-61
2023/04/06 07:27:07;;;;;;;46.15;21.42;;;2.50;99.90;;;;;;5057961;28;20033;-60
2023/04/06 07:29:32;;;;;;;37.63;16.98;;;2.60;99.90;;;;;;5067676;28;20103;-61
2023/04/06 07:31:58;;;;;;;34.50;16.60;;;2.90;99.90;;;;;;5064295;28;20037;-61
2023/04/06 07:34:24;;;;;;;36.38;16.95;;;3.10;99.90;;;;;;5068603;28;20052;-61
2023/04/06 07:36:49;;;;;;;35.88;15.73;;;3.30;99.90;;;;;;5057950;28;20025;-60
2023/04/06 07:39:15;;;;;;;36.35;15.52;;;3.50;99.90;;;;;;5048749;28;20079;-61
2023/04/06 07:41:41;;;;;;;36.05;15.98;;;3.80;99.90;;;;;;5064251;28;20028;-61
2023/04/06 07:44:07;;;;;;;31.60;14.23;;;4.00;99.90;;;;;;5056253;28;20040;-61
2023/04/06 07:46:32;;;;;;;28.67;14.32;;;4.20;99.90;;;;;;5044274;28;20028;-65
2023/04/06 07:48:59;;;;;;;28.42;14.07;;;4.40;99.90;;;;;;5068343;28;20117;-61
2023/04/06 07:51:26;;;;;;;33.75;14.75;;;4.60;99.90;;;;;;5061860;28;20067;-62
2023/04/06 07:53:52;;;;;;;29.05;13.68;;;4.80;99.90;;;;;;5066941;28;20052;-61
2023/04/06 07:56:17;;;;;;;28.42;14.00;;;5.00;99.90;;;;;;5056664;28;20366;-63
2023/04/06 07:58:43;;;;;;;31.23;12.93;;;5.20;99.90;;;;;;5055325;28;20041;-62
2023/04/06 08:01:09;;;;;;;29.33;13.43;;;5.40;99.90;;;;;;5062537;28;20028;-63
2023/04/06 08:03:35;;;;;;;27.98;12.43;;;5.50;99.90;;;;;;5059980;28;20033;-60
2023/04/06 08:06:02;;;;;;;31.67;11.98;;;5.70;99.90;;;;;;5064621;28;20036;-62
2023/04/06 08:08:28;;;;;;;25.75;11.90;;;5.80;99.90;;;;;;5065558;28;20111;-62
2023/04/06 08:10:53;;;;;;;27.58;11.80;;;6.00;99.90;;;;;;5065418;28;20036;-61
2023/04/06 08:13:19;;;;;;;22.65;10.93;;;6.20;99.90;;;;;;5059115;28;20086;-63
2023/04/06 08:15:45;;;;;;;24.67;11.27;;;6.30;99.90;;;;;;5047581;28;20025;-61
2023/04/06 08:18:11;;;;;;;26.60;11.50;;;6.50;99.90;;;;;;5049534;28;20475;-61
2023/04/06 08:20:36;;;;;;;21.42;10.30;;;6.60;99.90;;;;;;5047199;28;20079;-62
2023/04/06 08:23:02;;;;;;;22.08;10.27;;;6.70;99.90;;;;;;5065066;28;20370;-60
2023/04/06 08:25:28;;;;;;;22.42;10.07;;;7.00;99.90;;;;;;5071597;28;20476;-60
2023/04/06 08:27:53;;;;;;;23.08;10.13;;;7.10;99.90;;;;;;5044977;28;20779;-62
2023/04/06 08:30:19;;;;;;;22.95;10.13;;;7.20;99.90;;;;;;5071692;28;20039;-61
2023/04/06 08:32:45;;;;;;;24.10;10.40;;;7.40;99.60;;;;;;5065280;28;20469;-60
2023/04/06 08:35:11;;;;;;;23.67;10.48;;;7.50;99.70;;;;;;5065030;28;21820;-62
2023/04/06 08:37:37;;;;;;;27.60;11.80;;;7.60;99.00;;;;;;5051574;28;20466;-63
2023/04/06 08:40:04;;;;;;;24.77;11.35;;;7.80;99.90;;;;;;5072149;28;20103;-61
2023/04/06 08:42:32;;;;;;;25.77;11.98;;;8.00;99.90;;;;;;5045526;28;20049;-60
2023/04/06 08:44:59;;;;;;;29.45;12.27;;;8.00;99.90;;;;;;5051570;28;20024;-61
2023/04/06 08:47:25;;;;;;;28.98;12.52;;;8.10;99.90;;;;;;5061487;28;20024;-61
2023/04/06 08:49:52;;;;;;;26.20;11.82;;;8.20;98.40;;;;;;5055224;28;20083;-62
2023/04/06 08:52:19;;;;;;;28.92;11.45;;;8.30;99.60;;;;;;5051756;28;20791;-61
2023/04/06 08:54:45;;;;;;;27.52;11.38;;;8.40;95.70;;;;;;5060988;28;20393;-62
2023/04/06 08:57:11;;;;;;;24.67;11.48;;;8.50;98.30;;;;;;5067680;28;20039;-60
2023/04/06 08:59:38;;;;;;;26.80;11.45;;;8.70;98.50;;;;;;5063937;28;20024;-64
2023/04/06 09:02:05;;;;;;;24.80;11.48;;;8.80;98.10;;;;;;5053747;28;20032;-62
2023/04/06 09:04:35;;;;;;;23.30;11.63;;;8.90;98.50;;;;;;5064214;28;20052;-64
2023/04/06 09:07:01;;;;;;;26.98;10.70;;;9.00;94.40;;;;;;5063038;28;20025;-62
2023/04/06 09:09:27;;;;;;;23.77;10.70;;;9.20;95.60;;;;;;5068129;28;20039;-61
2023/04/06 09:11:53;;;;;;;23.60;10.80;;;9.20;95.30;;;;;;5064956;28;20028;-64
2023/04/06 09:14:40;;;;;;;20.75;8.82;;;9.20;93.70;;;;;;5066938;28;20032;-62
2023/04/06 09:17:06;;;;;;;21.40;9.20;;;9.30;89.00;;;;;;5058366;28;20029;-61
2023/04/06 09:19:31;;;;;;;24.27;9.73;;;9.30;85.60;;;;;;5065802;28;20103;-62
2023/04/06 09:22:09;;;;;;;22.13;8.60;;;9.40;85.90;;;;;;5050506;28;20029;-62
2023/04/06 09:24:52;;;;;;;24.15;8.85;;;9.60;89.30;;;;;;5060853;28;20033;-67
2023/04/06 09:27:30;;;;;;;23.23;9.88;;;9.90;88.90;;;;;;5066550;28;20036;-61
2023/04/06 09:30:05;;;;;;;23.13;10.95;;;10.00;81.00;;;;;;5064066;28;20032;-61
2023/04/06 09:32:30;;;;;;;20.90;10.23;;;10.20;84.40;;;;;;5062818;28;20441;-61
2023/04/06 09:35:06;;;;;;;22.35;10.60;;;10.10;76.80;;;;;;5064092;28;20032;-61
2023/04/06 09:37:32;;;;;;;26.05;10.57;;;10.10;84.40;;;;;;5060989;28;20103;-60
2023/04/06 09:40:05;;;;;;;20.65;10.30;;;10.00;88.40;;;;;;5067626;28;20175;-61
2023/04/06 09:42:31;;;;;;;26.45;9.82;;;10.10;81.80;;;;;;5062320;28;20036;-62
2023/04/06 09:44:57;;;;;;;23.95;10.95;;;10.20;79.70;;;;;;5066032;28;20172;-61
2023/04/06 09:47:25;;;;;;;25.65;11.07;;;10.00;87.40;;;;;;5056975;28;20497;-63
2023/04/06 09:49:57;;;;;;;24.05;11.35;;;10.00;82.70;;;;;;5046383;28;20116;-61
2023/04/06 09:52:32;;;;;;;23.60;10.02;;;10.30;84.90;;;;;;5063606;28;20053;-63
2023/04/06 09:55:02;;;;;;;22.15;10.40;;;10.60;83.20;;;;;;5061001;28;20064;-64
2023/04/06 09:57:46;;;;;;;21.58;9.90;;;10.90;76.80;;;;;;5055032;28;20500;-63
2023/04/06 10:00:19;;;;;;;22.60;11.48;;;11.30;85.00;;;;;;5070603;28;20067;-61
2023/04/06 10:03:08;;;;;;;22.45;11.18;;;11.60;81.30;;;;;;5067760;28;20037;-61
2023/04/06 10:05:42;;;;;;;19.13;10.30;;;11.50;74.30;;;;;;5070378;28;20112;-62
2023/04/06 10:08:10;;;;;;;25.95;12.35;;;11.60;76.50;;;;;;5065181;28;20040;-60
2023/04/06 10:10:36;;;;;;;26.15;11.82;;;11.30;77.30;;;;;;5059586;28;20587;-60
2023/04/06 10:13:03;;;;;;;26.35;11.60;;;10.80;77.00;;;;;;5066071;28;20042;-60
2023/04/06 10:15:31;;;;;;;24.90;12.07;;;10.60;77.10;;;;;;5065766;28;20039;-60
2023/04/06 10:17:59;;;;;;;23.23;11.30;;;10.70;81.80;;;;;;5063770;28;20039;-60
2023/04/06 10:20:30;;;;;;;22.52;11.77;;;11.10;74.70;;;;;;5058556;28;20075;-62
2023/04/06 10:23:01;;;;;;;25.10;12.27;;;11.20;69.20;;;;;;5058642;28;21130;-61
2023/04/06 10:25:30;;;;;;;25.95;11.02;;;11.20;74.50;;;;;;5067201;28;20507;-62
2023/04/06 10:28:06;;;;;;;23.10;11.00;;;10.70;75.00;;;;;;5054116;28;20346;-61
2023/04/06 10:30:33;;;;;;;23.15;10.60;;;10.80;68.00;;;;;;5059416;28;20150;-62
2023/04/06 10:32:59;;;;;;;20.67;10.18;;;10.70;68.70;;;;;;5046265;28;20187;-62
2023/04/06 10:35:38;;;;;;;23.02;11.48;;;11.00;71.40;;;;;;5064366;28;20465;-61
2023/04/06 10:38:05;;;;;;;19.38;10.35;;;11.30;72.00;;;;;;5051664;28;20718;-61
2023/04/06 10:40:33;;;;;;;28.70;11.20;;;11.70;71.20;;;;;;5067604;28;20082;-60
2023/04/06 10:43:19;;;;;;;19.23;9.70;;;11.90;68.20;;;;;;5064748;28;20036;-61
2023/04/06 10:45:52;;;;;;;19.65;10.05;;;11.90;69.30;;;;;;5061815;28;20495;-61
2023/04/06 10:48:19;;;;;;;18.25;9.30;;;11.90;62.40;;;;;;5053462;28;20044;-61
2023/04/06 10:50:47;;;;;;;21.52;10.70;;;12.00;61.30;;;;;;5048953;28;20044;-61
2023/04/06 10:53:21;;;;;;;19.60;9.75;;;12.20;62.50;;;;;;5049586;28;20064;-63
2023/04/06 10:55:47;;;;;;;21.15;10.50;;;12.20;59.90;;;;;;5077206;28;20882;-61
2023/04/06 10:58:13;;;;;;;22.13;10.63;;;12.10;59.50;;;;;;5063875;28;20209;-63
2023/04/06 11:00:45;;;;;;;22.98;10.70;;;12.20;68.00;;;;;;5051684;28;20408;-62
2023/04/06 11:03:11;;;;;;;20.48;10.25;;;12.10;67.30;;;;;;5067428;28;20029;-62
2023/04/06 11:05:36;;;;;;;20.92;10.20;;;12.20;64.10;;;;;;5066104;28;20048;-61
2023/04/06 11:08:02;;;;;;;18.63;9.60;;;12.20;64.30;;;;;;5068761;28;20495;-61
2023/04/06 11:10:29;;;;;;;19.17;10.60;;;12.10;59.20;;;;;;5069533;28;20035;-63
2023/04/06 11:12:56;;;;;;;20.52;9.95;;;12.30;62.50;;;;;;5067266;28;20040;-61
2023/04/06 11:15:22;;;;;;;17.42;9.40;;;12.40;62.10;;;;;;5064348;28;20484;-64
2023/04/06 11:17:49;;;;;;;19.73;10.15;;;11.60;59.50;;;;;;5068016;28;20032;-62
2023/04/06 11:20:15;;;;;;;17.20;9.55;;;11.40;61.70;;;;;;5060743;28;20024;-62
2023/04/06 11:22:53;;;;;;;19.48;9.85;;;11.70;59.90;;;;;;5066314;28;20114;-66
2023/04/06 11:25:19;;;;;;;17.35;8.88;;;12.00;61.70;;;;;;5060388;28;20058;-62
2023/04/06 11:27:47;;;;;;;20.40;9.82;;;12.40;63.50;;;;;;5061510;28;20112;-64
2023/04/06 11:30:14;;;;;;;19.20;9.07;;;11.90;63.20;;;;;;5065171;28;20669;-62
2023/04/06 11:32:45;;;;;;;17.15;8.98;;;11.60;61.10;;;;;;5066951;28;20085;-65
2023/04/06 11:35:22;;;;;;;16.92;8.73;;;11.30;61.10;;;;;;5067711;28;20433;-61
2023/04/06 11:37:51;;;;;;;17.30;8.52;;;11.40;59.40;;;;;;5056037;28;20040;-62
2023/04/06 11:40:27;;;;;;;19.27;9.02;;;12.00;61.50;;;;;;5059750;28;20385;-60
2023/04/06 11:42:54;;;;;;;17.55;8.07;;;12.30;64.00;;;;;;5067888;28;20036;-63
2023/04/06 11:45:21;;;;;;;17.10;8.18;;;12.40;62.10;;;;;;5068783;28;20449;-62
2023/04/06 11:47:57;;;;;;;17.20;8.80;;;12.10;56.90;;;;;;5065066;28;20036;-64
2023/04/06 11:50:22;;;;;;;18.58;8.98;;;12.20;57.30;;;;;;5060361;28;20135;-63
2023/04/06 11:52:59;;;;;;;16.75;8.68;;;12.50;57.80;;;;;;5058310;28;20127;-62
2023/04/06 11:55:25;;;;;;;17.33;8.48;;;12.80;64.20;;;;;;5058416;28;20025;-63
2023/04/06 11:57:51;;;;;;;16.85;8.95;;;13.20;59.70;;;;;;5060173;28;20033;-61
2023/04/06 12:00:17;;;;;;;14.65;8.60;;;13.40;58.40;;;;;;5063950;28;20107;-62
2023/04/06 12:02:47;;;;;;;16.60;8.57;;;13.40;56.00;;;;;;5052740;28;20045;-64
2023/04/06 12:05:12;;;;;;;15.73;8.32;;;13.20;59.30;;;;;;5061370;28;20102;-62
2023/04/06 12:07:38;;;;;;;17.75;8.48;;;12.90;57.30;;;;;;5062529;28;20468;-61
2023/04/06 12:10:04;;;;;;;16.98;8.43;;;12.30;58.50;;;;;;5043768;28;20638;-62
2023/04/06 12:12:30;;;;;;;17.20;8.68;;;12.30;58.70;;;;;;5057205;28;20096;-62
2023/04/06 12:14:59;;;;;;;16.48;8.73;;;12.60;60.10;;;;;;5047615;28;20036;-61
2023/04/06 12:17:25;;;;;;;14.77;8.10;;;12.30;61.00;;;;;;5066402;28;20036;-61
2023/04/06 12:19:51;;;;;;;13.15;6.82;;;12.20;58.40;;;;;;5043230;28;20040;-66
2023/04/06 12:22:18;;;;;;;17.95;8.50;;;12.70;62.70;;;;;;5067267;28;20181;-61
2023/04/06 12:24:43;;;;;;;14.77;7.55;;;13.10;56.20;;;;;;5043895;28;20048;-61
2023/04/06 12:27:11;;;;;;;16.58;7.97;;;13.00;54.00;;;;;;5062694;28;20033;-62
2023/04/06 12:29:38;;;;;;;18.50;8.77;;;13.00;55.50;;;;;;5061219;28;20027;-62